createdAt,value
2018-04-27T00:02:58.309Z,12.80
2018-04-27T00:06:02.124Z,9.47
2018-04-27T00:09:06.673Z,7.43
2018-04-27T00:12:10.458Z,9.33
2018-04-27T00:15:14.363Z,8.13
2018-04-27T00:18:18.164Z,6.30
2018-04-27T00:21:22.714Z,8.50
2018-04-27T00:24:27.259Z,7.67
2018-04-27T00:27:31.781Z,7.73
2018-04-27T00:30:36.334Z,4.83
2018-04-27T00:33:40.881Z,7.70
2018-04-27T00:36:45.400Z,5.33
2018-04-27T00:39:49.212Z,7.33
2018-04-27T00:42:52.993Z,10.97
2018-04-27T00:45:56.799Z,7.33
2018-04-27T00:49:00.608Z,6.57
2018-04-27T00:52:05.171Z,6.00
2018-04-27T00:55:08.986Z,8.40
2018-04-27T00:58:12.788Z,6.93
2018-04-27T01:01:16.598Z,6.57
2018-04-27T01:04:20.414Z,6.83
2018-04-27T01:07:24.199Z,6.83
2018-04-27T01:10:28.012Z,5.00
2018-04-27T01:13:31.802Z,5.50
2018-04-27T01:16:36.378Z,5.93
2018-04-27T01:19:40.188Z,5.77
2018-04-27T01:22:44.708Z,6.47
2018-04-27T01:25:48.516Z,5.03
2018-04-27T01:28:52.297Z,4.57
2018-04-27T01:31:56.102Z,6.63
2018-04-27T01:35:00.647Z,5.77
2018-04-27T01:38:05.237Z,6.03
2018-04-27T01:41:09.047Z,7.50
2018-04-27T01:44:12.864Z,7.40
2018-04-27T01:47:16.647Z,10.17
2018-04-27T01:50:21.207Z,4.13
2018-04-27T01:53:24.981Z,5.53
2018-04-27T01:56:28.799Z,7.23
2018-04-27T01:59:32.606Z,6.17
2018-04-27T02:02:36.403Z,5.90
2018-04-27T02:05:40.212Z,6.50
2018-04-27T02:08:44.734Z,8.73
2018-04-27T02:11:48.536Z,5.67
2018-04-27T02:14:52.348Z,10.83
2018-04-27T02:17:56.131Z,5.13
2018-04-27T02:21:00.673Z,7.40
2018-04-27T02:24:05.211Z,9.63
2018-04-27T02:27:09.762Z,8.97
2018-04-27T02:30:14.305Z,5.77
2018-04-27T02:33:18.129Z,5.80
2018-04-27T02:36:21.934Z,3.20
2018-04-27T02:39:26.456Z,7.33
2018-04-27T02:42:31.751Z,9.87
2018-04-27T02:45:35.577Z,11.23
2018-04-27T02:48:39.360Z,7.33
2018-04-27T02:51:43.171Z,7.50
2018-04-27T02:54:46.957Z,5.87
2018-04-27T02:57:50.762Z,9.10
2018-04-27T03:00:55.558Z,5.97
2018-04-27T03:03:59.354Z,6.20
2018-04-27T03:07:03.243Z,8.90
2018-04-27T03:10:07.010Z,6.40
2018-04-27T03:13:10.793Z,5.43
2018-04-27T03:16:15.340Z,6.37
2018-04-27T03:19:19.876Z,6.63
2018-04-27T03:22:26.810Z,5.27
2018-04-27T03:25:30.681Z,6.87
2018-04-27T03:28:34.498Z,5.87
2018-04-27T03:31:38.328Z,6.47
2018-04-27T03:34:47.675Z,6.77
2018-04-27T03:37:51.484Z,5.70
2018-04-27T03:40:55.286Z,7.10
2018-04-27T03:43:59.063Z,5.73
2018-04-27T03:47:02.868Z,7.07
2018-04-27T03:50:06.665Z,7.73
2018-04-27T03:53:10.478Z,7.37
2018-04-27T03:56:14.303Z,6.30
2018-04-27T03:59:46.534Z,7.00
2018-04-27T04:06:28.032Z,15.37
2018-04-27T04:09:31.853Z,8.40
2018-04-27T04:12:35.692Z,8.17
2018-04-27T04:15:39.504Z,7.53
2018-04-27T04:18:43.349Z,8.73
2018-04-27T04:21:47.183Z,9.07
2018-04-27T04:24:50.991Z,6.87
2018-04-27T04:27:58.343Z,8.20
2018-04-27T04:31:02.159Z,14.83
2018-04-27T04:34:06.013Z,10.47
2018-04-27T04:37:09.827Z,14.47
2018-04-27T04:40:13.622Z,17.87
2018-04-27T04:43:17.439Z,12.67
2018-04-27T04:46:21.256Z,13.57
2018-04-27T04:49:25.043Z,22.40
2018-04-27T04:52:29.687Z,15.33
2018-04-27T04:55:33.430Z,10.17
2018-04-27T04:58:37.256Z,9.43
2018-04-27T05:01:41.078Z,9.37
2018-04-27T05:04:44.868Z,9.97
2018-04-27T05:07:48.678Z,6.77
2018-04-27T05:10:52.680Z,7.63
2018-04-27T05:13:56.455Z,7.30
2018-04-27T05:17:01.006Z,6.83
2018-04-27T05:20:04.785Z,7.50
2018-04-27T05:23:08.609Z,8.47
2018-04-27T05:26:12.401Z,9.93
2018-04-27T05:29:16.219Z,6.63
2018-04-27T05:32:20.029Z,8.97
2018-04-27T05:35:23.831Z,7.63
2018-04-27T05:38:28.411Z,7.77
2018-04-27T05:41:32.218Z,8.20
2018-04-27T05:44:36.609Z,10.43
2018-04-27T05:47:40.428Z,16.00
2018-04-27T05:50:44.235Z,11.97
2018-04-27T05:53:48.087Z,7.87
2018-04-27T05:56:51.926Z,10.33
2018-04-27T06:00:03.771Z,8.43
2018-04-27T06:03:07.620Z,7.57
2018-04-27T06:06:11.414Z,5.77
2018-04-27T06:09:16.064Z,7.27
2018-04-27T06:12:19.872Z,9.40
2018-04-27T06:15:24.389Z,9.40
2018-04-27T06:18:28.198Z,10.27
2018-04-27T06:21:31.981Z,12.60
2018-04-27T06:24:35.801Z,10.57
2018-04-27T06:27:39.616Z,14.97
2018-04-27T06:30:44.137Z,12.77
2018-04-27T06:33:47.990Z,13.17
2018-04-27T06:36:51.915Z,9.73
2018-04-27T06:39:55.842Z,20.40
2018-04-27T06:43:10.301Z,18.67
2018-04-27T06:46:15.015Z,16.90
2018-04-27T06:49:18.866Z,14.27
2018-04-27T06:52:24.461Z,10.20
2018-04-27T06:55:29.751Z,11.53
2018-04-27T06:58:50.762Z,14.47
2018-04-27T07:01:56.426Z,11.07
2018-04-27T07:05:00.343Z,8.97
2018-04-27T07:08:04.111Z,9.60
2018-04-27T07:11:07.913Z,10.60
2018-04-27T07:14:11.743Z,10.20
2018-04-27T07:17:15.542Z,18.57
2018-04-27T07:20:19.979Z,52.57
2018-04-27T07:23:23.802Z,30.90
2018-04-27T07:26:27.616Z,24.17
2018-04-27T07:29:32.948Z,28.13
2018-04-27T07:32:36.804Z,23.67
2018-04-27T07:35:41.786Z,23.93
2018-04-27T07:38:47.341Z,21.87
2018-04-27T07:41:51.165Z,17.03
2018-04-27T07:44:55.037Z,21.13
2018-04-27T07:47:59.988Z,21.13
2018-04-27T07:51:03.815Z,18.57
2018-04-27T07:54:07.706Z,13.00
2018-04-27T07:57:11.559Z,14.70
2018-04-27T08:00:15.526Z,13.83
2018-04-27T08:03:19.443Z,14.40
2018-04-27T08:06:24.032Z,13.27
2018-04-27T08:09:27.924Z,14.40
2018-04-27T08:12:31.751Z,10.00
2018-04-27T08:15:36.550Z,11.00
2018-04-27T08:18:40.551Z,9.70
2018-04-27T08:21:44.359Z,9.90
2018-04-27T08:24:48.226Z,11.77
2018-04-27T08:27:52.677Z,10.70
2018-04-27T08:30:56.554Z,15.20
2018-04-27T08:34:00.376Z,20.83
2018-04-27T08:37:04.193Z,16.70
2018-04-27T08:40:08.036Z,25.67
2018-04-27T08:43:24.158Z,30.47
2018-04-27T08:46:30.725Z,34.23
2018-04-27T08:49:34.744Z,31.90
2018-04-27T08:52:38.584Z,33.03
2018-04-27T08:55:42.444Z,40.13
2018-04-27T08:58:46.304Z,52.17
2018-04-27T09:01:53.801Z,72.80
2018-04-27T09:04:58.925Z,85.97
2018-04-27T09:08:02.742Z,72.00
2018-04-27T09:11:06.580Z,57.50
2018-04-27T09:14:10.381Z,52.53
2018-04-27T09:17:14.160Z,44.47
2018-04-27T09:20:18.715Z,35.10
2018-04-27T09:23:23.296Z,30.87
2018-04-27T09:26:27.141Z,27.67
2018-04-27T09:29:31.052Z,21.00
2018-04-27T09:32:34.888Z,20.97
2018-04-27T09:35:58.899Z,19.70
2018-04-27T09:39:04.245Z,16.97
2018-04-27T09:42:08.070Z,17.87
2018-04-27T09:45:11.954Z,14.10
2018-04-27T09:48:15.805Z,13.43
2018-04-27T09:51:19.654Z,11.67
2018-04-27T09:54:23.515Z,15.10
2018-04-27T09:57:28.125Z,34.07
2018-04-27T10:00:31.990Z,41.97
2018-04-27T10:03:35.828Z,46.60
2018-04-27T10:06:39.952Z,39.83
2018-04-27T10:09:43.810Z,30.33
2018-04-27T10:12:47.639Z,32.23
2018-04-27T10:15:51.629Z,27.47
2018-04-27T10:18:55.746Z,20.70
2018-04-27T10:22:00.389Z,18.33
2018-04-27T10:25:05.205Z,22.27
2018-04-27T10:28:09.208Z,16.33
2018-04-27T10:31:13.083Z,16.10
2018-04-27T10:34:17.269Z,13.57
2018-04-27T10:37:21.099Z,10.53
2018-04-27T10:40:24.957Z,10.50
2018-04-27T10:43:28.806Z,9.83
2018-04-27T10:46:33.441Z,8.77
2018-04-27T10:49:38.888Z,10.07
2018-04-27T10:52:42.686Z,10.23
2018-04-27T10:55:46.531Z,10.27
2018-04-27T10:58:50.394Z,10.00
2018-04-27T11:01:54.185Z,11.37
2018-04-27T11:04:57.997Z,11.23
2018-04-27T11:08:01.792Z,14.37
2018-04-27T11:11:05.699Z,12.87
2018-04-27T11:14:09.545Z,13.13
2018-04-27T11:17:13.362Z,19.63
2018-04-27T11:20:17.235Z,19.77
2018-04-27T11:23:21.011Z,21.93
2018-04-27T11:26:26.079Z,16.67
2018-04-27T11:29:29.906Z,21.57
2018-04-27T11:32:33.733Z,18.10
2018-04-27T11:35:37.619Z,16.83
2018-04-27T11:38:41.431Z,18.13
2018-04-27T11:41:45.979Z,18.30
2018-04-27T11:44:50.627Z,18.67
2018-04-27T11:47:54.540Z,14.37
2018-04-27T11:50:59.111Z,14.83
2018-04-27T11:57:32.341Z,21.93
2018-04-27T12:00:36.225Z,38.90
2018-04-27T12:03:40.145Z,61.63
2018-04-27T12:06:44.835Z,76.83
2018-04-27T12:09:49.503Z,85.70
2018-04-27T12:12:53.543Z,83.20
2018-04-27T12:15:57.461Z,76.30
2018-04-27T12:19:01.312Z,73.07
2018-04-27T12:22:05.207Z,68.87
2018-04-27T12:25:09.152Z,65.70
2018-04-27T12:28:13.021Z,64.00
2018-04-27T12:31:17.026Z,59.60
2018-04-27T12:34:21.738Z,55.43
2018-04-27T12:37:25.664Z,74.03
2018-04-27T12:40:29.547Z,76.40
2018-04-27T12:43:34.897Z,76.23
2018-04-27T12:46:39.574Z,117.40
2018-04-27T12:49:44.168Z,91.13
2018-04-27T12:52:48.061Z,102.37
2018-04-27T12:55:51.957Z,94.80
2018-04-27T12:58:55.806Z,104.53
2018-04-27T13:02:00.432Z,95.23
2018-04-27T13:05:05.010Z,100.10
2018-04-27T13:08:08.921Z,93.37
2018-04-27T13:11:12.738Z,89.00
2018-04-27T13:14:17.281Z,94.53
2018-04-27T13:17:21.829Z,88.53
2018-04-27T13:20:25.613Z,88.40
2018-04-27T13:23:29.426Z,92.27
2018-04-27T13:26:34.023Z,93.83
2018-04-27T13:29:37.747Z,89.33
2018-04-27T13:32:41.554Z,86.27
2018-04-27T13:35:46.105Z,84.80
2018-04-27T13:38:50.031Z,86.03
2018-04-27T13:41:53.916Z,83.43
2018-04-27T13:44:57.732Z,78.03
2018-04-27T13:48:01.660Z,80.73
2018-04-27T13:51:05.739Z,78.27
2018-04-27T13:54:10.346Z,75.47
2018-04-27T13:57:14.262Z,75.97
2018-04-27T14:00:19.980Z,78.27
2018-04-27T14:03:23.811Z,85.17
2018-04-27T14:06:28.464Z,83.17
2018-04-27T14:09:36.258Z,77.30
2018-04-27T14:12:40.897Z,76.40
2018-04-27T14:15:46.351Z,75.43
2018-04-27T14:18:50.955Z,78.13
2018-04-27T14:21:54.795Z,76.47
2018-04-27T14:24:58.634Z,72.37
2018-04-27T14:28:02.483Z,73.50
2018-04-27T14:31:07.059Z,74.50
2018-04-27T14:34:10.916Z,70.63
2018-04-27T14:37:14.791Z,70.33
2018-04-27T14:40:18.623Z,68.23
2018-04-27T14:43:22.475Z,69.27
2018-04-27T14:46:26.325Z,73.03
2018-04-27T14:49:30.143Z,65.37
2018-04-27T14:52:34.303Z,64.77
2018-04-27T14:55:38.125Z,70.23
2018-04-27T14:58:42.751Z,73.53
2018-04-27T15:01:46.636Z,66.53
2018-04-27T15:04:50.505Z,63.00
2018-04-27T15:07:54.491Z,68.73
2018-04-27T15:11:20.109Z,67.07
2018-04-27T15:14:23.950Z,66.33
2018-04-27T15:17:27.804Z,63.07
2018-04-27T15:20:31.631Z,60.10
2018-04-27T15:23:35.485Z,66.33
2018-04-27T15:26:40.083Z,62.80
2018-04-27T15:29:43.912Z,61.50
2018-04-27T15:32:47.769Z,63.47
2018-04-27T15:35:52.324Z,61.90
2018-04-27T15:38:56.910Z,65.83
2018-04-27T15:42:00.819Z,59.13
2018-04-27T15:45:04.654Z,63.50
2018-04-27T15:48:08.540Z,75.43
2018-04-27T15:51:13.106Z,67.30
2018-04-27T15:54:16.949Z,76.97
2018-04-27T15:57:20.857Z,67.03
2018-04-27T16:00:25.443Z,72.87
2018-04-27T16:03:29.295Z,83.73
2018-04-27T16:06:33.857Z,99.57
2018-04-27T16:09:37.777Z,121.33
2018-04-27T16:12:41.687Z,130.43
2018-04-27T16:15:46.263Z,136.33
2018-04-27T16:18:50.149Z,144.10
2018-04-27T16:21:54.039Z,169.73
2018-04-27T16:24:57.934Z,178.93
2018-04-27T16:28:01.832Z,186.40
2018-04-27T16:31:06.470Z,175.10
2018-04-27T16:34:10.354Z,173.57
2018-04-27T16:37:14.181Z,165.13
2018-04-27T16:40:34.620Z,162.37
2018-04-27T16:43:38.452Z,173.80
2018-04-27T16:46:42.309Z,174.53
2018-04-27T16:49:46.236Z,175.43
2018-04-27T16:52:50.075Z,176.90
2018-04-27T16:55:53.940Z,206.17
2018-04-27T16:58:57.839Z,204.83
2018-04-27T17:02:01.683Z,219.13
2018-04-27T17:05:05.561Z,241.27
2018-04-27T17:08:09.454Z,241.33
2018-04-27T17:11:14.112Z,247.37
2018-04-27T17:14:19.011Z,253.97
2018-04-27T17:17:23.405Z,264.10
2018-04-27T17:20:28.023Z,262.60
2018-04-27T17:23:52.779Z,254.17
2018-04-27T17:26:56.695Z,251.37
2018-04-27T17:30:02.511Z,245.83
2018-04-27T17:33:06.424Z,251.60
2018-04-27T17:36:10.301Z,244.87
2018-04-27T17:39:14.181Z,243.30
2018-04-27T17:42:18.074Z,238.43
2018-04-27T17:45:22.713Z,242.10
2018-04-27T17:48:27.337Z,231.63
2018-04-27T17:51:31.193Z,225.77
2018-04-27T17:54:35.093Z,224.50
2018-04-27T17:57:39.611Z,229.60
2018-04-27T18:00:43.483Z,219.87
2018-04-27T18:03:48.083Z,214.53
2018-04-27T18:06:51.923Z,210.40
2018-04-27T18:09:55.804Z,213.03
2018-04-27T18:12:59.631Z,205.77
2018-04-27T18:16:03.502Z,205.60
2018-04-27T18:19:07.523Z,198.27
2018-04-27T18:22:19.794Z,202.37
2018-04-27T18:25:23.680Z,200.33
2018-04-27T18:28:28.324Z,191.47
2018-04-27T18:31:32.191Z,191.10
2018-04-27T18:34:36.070Z,188.70
2018-04-27T18:37:39.895Z,187.40
2018-04-27T18:40:43.754Z,183.57
2018-04-27T18:43:47.585Z,185.20
2018-04-27T18:46:51.437Z,180.57
2018-04-27T18:49:55.268Z,175.87
2018-04-27T18:52:59.118Z,176.53
2018-04-27T18:56:04.788Z,170.83
2018-04-27T18:59:08.652Z,168.23
2018-04-27T19:02:12.547Z,165.77
2018-04-27T19:05:16.809Z,165.00
2018-04-27T19:08:21.430Z,162.63
2018-04-27T19:11:25.295Z,161.63
2018-04-27T19:14:29.187Z,163.90
2018-04-27T19:17:33.794Z,161.63
2018-04-27T19:20:40.013Z,154.70
2018-04-27T19:23:43.864Z,158.50
2018-04-27T19:26:48.507Z,151.07
2018-04-27T19:29:53.126Z,151.93
2018-04-27T19:32:57.727Z,153.03
2018-04-27T19:36:01.625Z,148.33
2018-04-27T19:39:12.509Z,149.03
2018-04-27T19:42:17.101Z,147.43
2018-04-27T19:45:20.980Z,146.93
2018-04-27T19:48:25.658Z,144.20
2018-04-27T19:51:29.531Z,141.37
2018-04-27T19:54:33.401Z,137.97
2018-04-27T19:57:38.077Z,141.23
2018-04-27T20:00:42.092Z,137.07
2018-04-27T20:03:45.960Z,139.90
2018-04-27T20:06:49.835Z,137.10
2018-04-27T20:09:55.923Z,134.70
2018-04-27T20:13:00.645Z,133.17
2018-04-27T20:16:04.537Z,131.77
2018-04-27T20:19:09.118Z,133.70
2018-04-27T20:22:21.750Z,130.97
2018-04-27T20:25:26.656Z,127.97
2018-04-27T20:28:31.236Z,131.50
2018-04-27T20:31:35.259Z,128.33
2018-04-27T20:34:39.901Z,129.60
2018-04-27T20:38:01.295Z,124.67
2018-04-27T20:41:09.739Z,125.60
2018-04-27T20:44:14.314Z,122.40
2018-04-27T20:47:21.526Z,122.87
2018-04-27T20:50:28.046Z,123.87
2018-04-27T20:54:00.514Z,123.00
2018-04-27T20:57:05.160Z,118.90
2018-04-27T21:00:09.307Z,117.47
2018-04-27T21:03:13.175Z,116.97
2018-04-27T21:06:17.857Z,118.77
2018-04-27T21:09:22.436Z,114.93
2018-04-27T21:12:34.424Z,115.40
2018-04-27T21:15:38.320Z,113.97
2018-04-27T21:18:42.196Z,110.87
2018-04-27T21:21:46.087Z,112.87
2018-04-27T21:24:50.763Z,107.90
2018-04-27T21:27:54.629Z,107.90
2018-04-27T21:30:58.477Z,105.20
2018-04-27T21:34:03.024Z,108.03
2018-04-27T21:37:06.948Z,105.10
2018-04-27T21:40:11.555Z,106.27
2018-04-27T21:43:15.381Z,104.23
2018-04-27T21:46:25.363Z,103.90
2018-04-27T21:49:29.175Z,101.00
2018-04-27T21:52:44.672Z,100.10
2018-04-27T21:55:48.507Z,101.17
2018-04-27T21:58:54.011Z,99.50
2018-04-27T22:01:57.857Z,98.87
2018-04-27T22:05:11.110Z,97.77
2018-04-27T22:12:05.841Z,100.32
2018-04-27T22:15:10.565Z,93.70
2018-04-27T22:18:15.132Z,93.40
2018-04-27T22:21:18.968Z,93.30
2018-04-27T22:24:32.468Z,93.27
2018-04-27T22:27:36.324Z,90.53
2018-04-27T22:30:44.392Z,91.80
2018-04-27T22:33:48.968Z,86.60
2018-04-27T22:36:52.817Z,86.50
2018-04-27T22:40:14.512Z,86.67
2018-04-27T22:43:20.751Z,84.93
2018-04-27T22:46:24.549Z,86.47
2018-04-27T22:49:28.377Z,84.90
2018-04-27T22:52:35.552Z,85.70
2018-04-27T22:55:40.183Z,83.10
2018-04-27T22:58:44.754Z,82.27
2018-04-27T23:01:48.562Z,80.00
2018-04-27T23:04:59.414Z,79.47
2018-04-27T23:08:04.865Z,78.20
2018-04-27T23:11:13.668Z,78.47
2018-04-27T23:14:27.253Z,79.47
2018-04-27T23:17:31.105Z,76.87
2018-04-27T23:20:34.964Z,76.93
2018-04-27T23:23:38.881Z,75.30
2018-04-27T23:26:42.688Z,72.53
2018-04-27T23:29:46.511Z,73.17
2018-04-27T23:32:50.356Z,71.93
2018-04-27T23:35:55.978Z,72.13
2018-04-27T23:39:00.551Z,70.37
2018-04-27T23:42:04.351Z,69.77
2018-04-27T23:45:09.570Z,77.50
2018-04-27T23:48:13.460Z,78.80
2018-04-27T23:51:17.269Z,75.50
2018-04-27T23:54:21.842Z,74.67
2018-04-27T23:57:25.649Z,71.30
